Flight Track Log - Related Links

Times and Time Zones

All times are in EDT time to prevent confusion due to time zone crossing. See the SKW4727 flight status page for this flight to view local times or setup timezone preferences in your user account.

Time Position Orientation Groundspeed Altitude Reporting Facility
EDT Latitude Longitude Course Direction KTS MPH feet Rate Location/Type
Wed 04:08:13 PM 42.3211 -85.5589 356° North 230 265 4,500  Level Chicago Center
Wed 04:09:15 PM 42.3514 -85.6533 293° West 270 311 7,100 2,613 Climbing Chicago Center
Wed 04:10:00 PM 42.4163 -86.0877 292° West  Level FlightAware Approximate
Wed 04:10:17 PM 42.3817 -85.7503 293° West 279 321 9,900  Level Chicago Center
Wed 04:11:00 PM 42.4584 -86.2253 294° West  Level FlightAware Approximate
Wed 04:11:19 PM 42.4156 -85.8586 293° West 308 354 10,300  Level Chicago Center
Wed 04:12:00 PM 42.5037 -86.3611 294° West  Level FlightAware Approximate
Wed 04:12:21 PM 42.4575 -86.0042 291° West 342 394 13,300  Level Chicago Center
Wed 04:13:23 PM 42.4853 -86.1203 288° West 325 374 15,700 2,016 Climbing Chicago Center
Wed 04:14:26 PM 42.4967 -86.2444 277° West 335 386 17,500 1,488 Climbing Chicago Center
Wed 04:15:28 PM 42.5089 -86.3692 278° West 335 386 18,800 1,306 Climbing Chicago Center
Wed 04:16:30 PM 42.5408 -86.4903 290° West 346 398 20,200 1,306 Climbing Chicago Center
Wed 04:17:32 PM 42.5803 -86.6103 294° West 349 402 21,500 1,113 Climbing Chicago Center
Wed 04:18:34 PM 42.6203 -86.7331 294° West 353 406 22,500 1,113 Climbing Chicago Center
Wed 04:19:36 PM 42.6681 -86.8828 294° West 359 413 23,800 1,065 Climbing Chicago Center
Wed 04:20:38 PM 42.7092 -87.0097 294° West 364 419 24,700 871 Climbing Chicago Center
Wed 04:21:40 PM 42.7528 -87.1389 295° West 372 428 25,600 629 Climbing Chicago Center
Wed 04:22:42 PM 42.8075 -87.2647 301° West 388 447 26,000 194 Climbing Chicago Center
Wed 04:23:44 PM 42.8739 -87.4017 304° West 399 459 26,000  Level Chicago Center
Wed 04:25:48 PM 43.0044 -87.6664 304° West 422 486 26,000  Level Chicago Center
Wed 04:26:50 PM 43.0711 -87.8061 303° West 434 499 26,000  Level Chicago Center
Wed 04:27:52 PM 43.1494 -87.9686 303° West 439 505 26,000  Level Chicago Center
Wed 04:28:54 PM 43.2172 -88.1086 304° West 440 506 26,000  Level Chicago Center
Wed 04:29:57 PM 43.2836 -88.2489 303° West 440 506 26,000  Level Chicago Center
Wed 04:30:59 PM 43.3511 -88.3900 303° West 440 506 26,000  Level Chicago Center
Wed 04:32:01 PM 43.4169 -88.5292 303° West 441 507 26,000  Level Chicago Center
Wed 04:33:03 PM 43.4886 -88.6836 303° West 444 511 26,000  Level Chicago Center
Wed 04:34:05 PM 43.5544 -88.8239 303° West 437 503 26,000  Level Chicago Center
Wed 04:35:07 PM 43.6197 -88.9647 303° West 434 499 26,000  Level Chicago Center
Wed 04:36:09 PM 43.6969 -89.1297 303° West 438 504 26,000  Level Chicago Center
Wed 04:37:11 PM 43.7622 -89.2719 302° West 437 503 26,000  Level Chicago Center
Wed 04:38:13 PM 43.8275 -89.4131 303° West 436 502 26,000  Level Chicago Center
Wed 04:39:15 PM 43.8928 -89.5564 302° West 438 504 26,000  Level Chicago Center
Wed 04:40:17 PM 43.9578 -89.6975 303° West 435 501 26,000  Level Chicago Center
Wed 04:41:19 PM 44.0311 -89.8658 301° West 435 501 26,000  Level Chicago Center
Wed 04:42:25 PM 44.0928 -90.0100 301° West 434 499 26,000  Level Minneapolis Center
Wed 04:43:27 PM 44.1550 -90.1542 301° West 435 501 26,000  Level Minneapolis Center
Wed 04:44:29 PM 44.2175 -90.2981 301° West 435 501 26,000  Level Minneapolis Center
Wed 04:45:31 PM 44.2903 -90.4675 301° West 436 502 26,000  Level Minneapolis Center
Wed 04:46:33 PM 44.3536 -90.6106 302° West 434 499 26,000  Level Minneapolis Center
Wed 04:47:35 PM 44.4153 -90.7569 301° West 435 501 26,000  Level Minneapolis Center
Wed 04:48:37 PM 44.4772 -90.9031 301° West 435 501 26,000  Level Minneapolis Center
Wed 04:49:39 PM 44.5375 -91.0433 301° West 435 501 26,000  Level Minneapolis Center
Wed 04:50:41 PM 44.6097 -91.2175 300° West 432 497 26,000  Level Minneapolis Center
Wed 04:51:43 PM 44.6672 -91.3631 299° West 431 496 26,000 -435 Level Minneapolis Center
Wed 04:52:45 PM 44.7275 -91.5058 301° West 428 493 25,100 -1,694 Descending Minneapolis Center
Wed 04:53:47 PM 44.7861 -91.6433 301° West 422 486 22,500 -2,419 Descending Minneapolis Center
Wed 04:54:49 PM 44.8411 -91.7736 301° West 404 465 20,100 -2,256 Descending Minneapolis Center
Wed 04:55:52 PM 44.8928 -91.9025 300° West 384 442 17,800 -2,352 Descending Minneapolis Center
Wed 04:56:54 PM 44.9522 -92.0447 301° West 351 404 15,200 -2,226 Descending Minneapolis Center
Wed 04:57:56 PM 44.9983 -92.1622 299° West 344 396 13,200 -1,935 Descending Minneapolis Center
Wed 04:58:58 PM 45.0444 -92.2775 300° West 340 391 11,200 -863 Descending Minneapolis Center
Wed 05:00:36 PM 45.0167 -92.5000 260° West 342 394 10,900 -456 Descending Minneapolis TRACON
Wed 05:01:36 PM 44.9667 -92.6000 235° Southwest 297 342 10,000 -1,100 Descending Minneapolis TRACON
Wed 05:02:36 PM 44.9167 -92.6833 230° Southwest 270 311 8,700 -1,200 Descending Minneapolis TRACON
Wed 05:03:06 PM 44.8947 -92.7164 227° Southwest 266 306 8,200 -1,043 Descending Minneapolis Center
Wed 05:04:08 PM 44.8528 -92.7903 231° Southwest 246 283 7,100 -1,065 Descending Minneapolis Center
Wed 05:05:10 PM 44.8369 -92.8700 254° West 221 254 6,000 -1,065 Descending Minneapolis Center
Wed 05:06:12 PM 44.8314 -92.9528 265° West 215 247 4,900 -1,065 Descending Minneapolis Center

Login

Don't have an account? Register now (free) for customized features, flight alerts, and more!